Time;durP1;ratioP1;P1;durP2;ratioP2;P2;SDS_P1;SDS_P2;PMS_P1;PMS_P2;Temp;Humidity;BMP_temperature;BMP_pressure;BME280_temperature;BME280_humidity;BME280_pressure;Samples;Min_cycle;Max_cycle;Signal;HPM_P1;HPM_P2
2021/11/25 00:02:13;;;;;;;29.60;12.75;;;2.30;99.90;;;;;;5047909;28;20055;-86
2021/11/25 00:04:38;;;;;;;30.35;13.57;;;2.30;99.90;;;;;;5048115;28;20029;-86
2021/11/25 00:07:04;;;;;;;32.53;14.20;;;2.30;99.90;;;;;;5043752;28;20055;-86
2021/11/25 00:09:30;;;;;;;32.20;13.48;;;2.20;99.90;;;;;;5047770;28;20033;-86
2021/11/25 00:11:55;;;;;;;31.55;13.82;;;2.20;99.90;;;;;;5048498;28;20097;-86
2021/11/25 00:14:21;;;;;;;32.20;14.10;;;2.00;99.90;;;;;;5031569;28;20056;-86
2021/11/25 00:16:47;;;;;;;36.22;13.93;;;2.10;99.90;;;;;;5048133;28;20041;-86
2021/11/25 00:19:12;;;;;;;30.10;13.57;;;1.90;99.90;;;;;;5064486;28;20029;-86
2021/11/25 00:21:38;;;;;;;29.67;13.63;;;1.90;99.90;;;;;;5031418;28;20029;-86
2021/11/25 00:24:05;;;;;;;31.98;13.45;;;1.90;99.90;;;;;;5031118;28;20033;-85
2021/11/25 00:26:32;;;;;;;27.92;12.75;;;1.90;99.90;;;;;;5047765;28;20041;-86
2021/11/25 00:28:59;;;;;;;31.60;14.10;;;1.90;99.90;;;;;;5064252;28;20029;-85
2021/11/25 00:31:25;;;;;;;28.85;12.75;;;1.80;99.90;;;;;;5047824;28;20440;-85
2021/11/25 00:33:50;;;;;;;37.88;14.63;;;1.80;99.90;;;;;;5031225;28;20033;-86
2021/11/25 00:36:16;;;;;;;36.95;15.60;;;1.80;99.90;;;;;;5031308;28;20025;-86
2021/11/25 00:38:41;;;;;;;37.65;14.43;;;1.80;99.90;;;;;;5047533;28;20056;-85
2021/11/25 00:41:07;;;;;;;33.40;14.35;;;1.70;99.90;;;;;;5027433;28;20056;-86
2021/11/25 00:43:33;;;;;;;33.78;13.80;;;1.70;99.90;;;;;;5027836;28;20048;-86
2021/11/25 00:45:58;;;;;;;33.60;14.43;;;1.70;99.90;;;;;;5045431;28;20044;-85
2021/11/25 00:48:24;;;;;;;35.95;14.38;;;1.70;99.90;;;;;;5027804;28;20488;-85
2021/11/25 00:50:50;;;;;;;34.75;14.35;;;1.60;99.90;;;;;;5056968;28;20025;-85
2021/11/25 00:53:15;;;;;;;35.95;13.98;;;1.60;99.90;;;;;;5047041;28;20029;-85
2021/11/25 00:55:42;;;;;;;29.50;13.40;;;1.50;99.90;;;;;;5047595;28;20044;-85
2021/11/25 00:58:08;;;;;;;33.22;13.07;;;1.50;99.90;;;;;;5047563;28;20040;-85
2021/11/25 01:00:34;;;;;;;33.65;13.65;;;1.50;99.90;;;;;;5047242;28;20029;-85
2021/11/25 01:03:00;;;;;;;36.90;14.80;;;1.50;99.90;;;;;;5047276;28;20063;-85
2021/11/25 01:05:26;;;;;;;33.53;13.95;;;1.40;99.90;;;;;;5047504;28;20040;-85
2021/11/25 01:07:51;;;;;;;31.85;13.98;;;1.40;99.90;;;;;;5067338;28;20100;-85
2021/11/25 01:10:21;;;;;;;32.03;13.63;;;1.30;99.90;;;;;;5050656;28;20033;-85
2021/11/25 01:12:47;;;;;;;33.40;13.15;;;1.30;99.90;;;;;;5034212;28;20029;-85
2021/11/25 01:15:15;;;;;;;29.30;11.50;;;1.30;99.90;;;;;;5068824;28;20544;-85
2021/11/25 01:17:42;;;;;;;34.58;14.15;;;1.20;99.90;;;;;;5034318;28;20139;-85
2021/11/25 01:20:17;;;;;;;32.60;12.57;;;1.20;99.90;;;;;;5034211;28;20078;-84
2021/11/25 01:22:43;;;;;;;31.70;11.50;;;1.30;99.90;;;;;;5034214;28;20025;-85
2021/11/25 01:25:09;;;;;;;31.52;12.35;;;1.30;99.90;;;;;;5034110;28;20062;-86
2021/11/25 01:27:34;;;;;;;30.35;12.70;;;1.30;99.90;;;;;;5034253;28;20064;-85
2021/11/25 01:30:00;;;;;;;31.90;11.90;;;1.20;99.90;;;;;;5050614;28;20117;-85
2021/11/25 01:32:26;;;;;;;26.95;10.98;;;1.30;99.90;;;;;;5033787;28;20120;-85
2021/11/25 01:34:52;;;;;;;28.42;12.07;;;1.30;99.90;;;;;;5050392;28;20021;-85
2021/11/25 01:37:18;;;;;;;26.90;10.88;;;1.40;99.90;;;;;;5034076;28;20025;-85
2021/11/25 01:39:43;;;;;;;29.55;12.32;;;1.20;99.90;;;;;;5034782;28;20067;-85
2021/11/25 01:42:09;;;;;;;30.75;12.27;;;1.10;99.90;;;;;;5030548;28;20045;-85
2021/11/25 01:44:35;;;;;;;24.42;10.68;;;1.00;99.90;;;;;;5030390;28;20064;-85
2021/11/25 01:47:04;;;;;;;25.90;10.88;;;1.00;99.90;;;;;;5030239;28;20045;-85
2021/11/25 01:49:30;;;;;;;30.55;11.00;;;1.00;99.90;;;;;;5030173;28;20029;-85
2021/11/25 01:51:57;;;;;;;30.63;11.80;;;1.00;99.90;;;;;;5046710;28;20033;-84
2021/11/25 01:54:23;;;;;;;27.83;11.05;;;0.90;99.90;;;;;;5030204;28;20029;-85
2021/11/25 01:56:49;;;;;;;29.67;11.10;;;1.00;99.90;;;;;;5046813;28;20117;-84
2021/11/25 01:59:15;;;;;;;27.38;10.25;;;1.00;99.90;;;;;;5030131;28;20026;-84
2021/11/25 02:01:40;;;;;;;25.23;10.68;;;1.00;99.90;;;;;;5029993;28;20031;-84
2021/11/25 02:04:06;;;;;;;23.02;10.10;;;1.10;99.90;;;;;;5030011;28;20035;-84
2021/11/25 02:06:32;;;;;;;21.98;9.80;;;1.10;99.90;;;;;;5029828;28;20091;-85
2021/11/25 02:08:59;;;;;;;22.23;9.18;;;1.20;99.90;;;;;;5028136;28;20029;-85
2021/11/25 02:11:25;;;;;;;22.42;10.40;;;1.30;99.90;;;;;;5009874;28;20046;-84
2021/11/25 02:13:51;;;;;;;24.60;10.50;;;1.30;99.90;;;;;;5026316;28;20102;-85
2021/11/25 02:16:17;;;;;;;22.60;9.02;;;1.30;99.90;;;;;;5009926;28;20030;-85
2021/11/25 02:18:43;;;;;;;22.77;9.27;;;1.20;99.90;;;;;;5009202;28;20030;-85
2021/11/25 02:21:08;;;;;;;22.55;9.20;;;1.30;99.90;;;;;;5026381;28;20033;-85
2021/11/25 02:23:34;;;;;;;19.67;8.70;;;1.40;99.90;;;;;;5009664;28;20034;-84
2021/11/25 02:26:00;;;;;;;19.60;8.43;;;1.40;99.90;;;;;;5009852;28;20042;-85
2021/11/25 02:28:30;;;;;;;24.15;10.43;;;1.40;99.90;;;;;;5009668;28;20068;-84
2021/11/25 02:30:56;;;;;;;20.48;8.77;;;1.40;99.90;;;;;;5026316;28;20049;-84
2021/11/25 02:33:22;;;;;;;20.35;8.52;;;1.40;99.90;;;;;;5026085;28;20061;-85
2021/11/25 02:35:48;;;;;;;22.92;10.50;;;1.50;99.90;;;;;;5027348;28;20045;-84
2021/11/25 02:38:15;;;;;;;21.52;9.18;;;1.50;99.90;;;;;;5009953;28;20053;-85
2021/11/25 02:40:42;;;;;;;20.38;8.65;;;1.40;99.90;;;;;;5025505;28;20029;-84
2021/11/25 02:43:11;;;;;;;20.92;9.43;;;1.50;99.90;;;;;;5026070;28;20054;-84
2021/11/25 02:45:46;;;;;;;22.10;10.13;;;1.50;99.90;;;;;;5026024;28;20376;-84
2021/11/25 02:48:13;;;;;;;19.45;8.43;;;1.50;99.90;;;;;;5009726;28;20037;-84
2021/11/25 02:50:38;;;;;;;21.30;8.60;;;1.50;99.90;;;;;;5015770;28;20036;-84
2021/11/25 02:53:04;;;;;;;23.38;9.35;;;1.60;99.90;;;;;;5045593;28;20029;-85
2021/11/25 02:55:30;;;;;;;20.88;9.35;;;1.50;99.90;;;;;;5029073;28;20063;-84
2021/11/25 02:57:55;;;;;;;21.30;9.77;;;1.60;99.90;;;;;;5029032;28;20041;-85
2021/11/25 03:00:21;;;;;;;22.23;9.93;;;1.60;99.90;;;;;;5028998;28;20410;-84
2021/11/25 03:02:54;;;;;;;23.63;10.32;;;1.60;99.90;;;;;;5028997;28;20060;-84
2021/11/25 03:05:19;;;;;;;22.17;9.27;;;1.60;99.90;;;;;;5028720;28;20064;-84
2021/11/25 03:07:45;;;;;;;23.33;10.68;;;1.60;99.90;;;;;;5028939;28;20033;-84
2021/11/25 03:10:11;;;;;;;22.13;10.18;;;1.70;99.90;;;;;;5028424;28;20101;-84
2021/11/25 03:12:36;;;;;;;22.58;10.18;;;1.80;99.90;;;;;;5028890;28;20056;-85
2021/11/25 03:15:03;;;;;;;22.55;10.05;;;1.70;99.90;;;;;;5028954;28;20106;-85
2021/11/25 03:17:29;;;;;;;24.00;9.55;;;1.70;99.90;;;;;;5028750;28;20033;-84
2021/11/25 03:19:54;;;;;;;26.95;10.50;;;1.70;99.90;;;;;;5028708;28;20029;-85
2021/11/25 03:22:20;;;;;;;20.40;8.68;;;1.70;99.90;;;;;;5028770;28;20025;-84
2021/11/25 03:24:46;;;;;;;22.65;9.43;;;1.70;99.90;;;;;;5028593;28;20025;-85
2021/11/25 03:27:11;;;;;;;20.77;8.95;;;1.70;99.90;;;;;;5028516;28;20045;-84
2021/11/25 03:29:37;;;;;;;26.65;9.77;;;1.70;99.90;;;;;;5028207;28;20080;-85
2021/11/25 03:32:03;;;;;;;21.52;9.75;;;1.70;99.90;;;;;;5028532;28;20040;-85
2021/11/25 03:34:29;;;;;;;21.52;10.27;;;1.70;99.90;;;;;;5028508;28;20064;-85
2021/11/25 03:36:54;;;;;;;24.40;10.07;;;1.70;99.90;;;;;;5045063;28;20029;-85
2021/11/25 03:39:20;;;;;;;20.80;10.27;;;1.90;99.90;;;;;;5028178;28;20053;-85
2021/11/25 03:41:46;;;;;;;20.92;10.35;;;2.10;99.90;;;;;;5028151;28;20057;-85
2021/11/25 03:44:11;;;;;;;19.17;9.05;;;2.00;99.90;;;;;;5028185;28;20030;-85
2021/11/25 03:46:37;;;;;;;20.35;10.32;;;1.90;99.90;;;;;;5028361;28;20047;-84
2021/11/25 03:49:04;;;;;;;18.80;9.15;;;1.80;99.90;;;;;;5028382;28;20036;-85
2021/11/25 03:51:29;;;;;;;22.70;11.10;;;1.70;99.90;;;;;;5024889;28;20037;-85
2021/11/25 03:53:55;;;;;;;24.08;10.65;;;1.80;99.90;;;;;;5008391;28;20584;-85
2021/11/25 03:56:21;;;;;;;22.85;10.85;;;1.80;99.90;;;;;;5008591;28;20044;-84
2021/11/25 03:58:47;;;;;;;23.58;10.32;;;1.80;99.90;;;;;;5008676;28;20026;-85
2021/11/25 04:01:13;;;;;;;23.08;10.20;;;1.80;99.90;;;;;;5008275;28;20040;-85
2021/11/25 04:03:39;;;;;;;20.73;10.48;;;1.90;99.90;;;;;;5008656;28;20026;-85
2021/11/25 04:06:05;;;;;;;24.83;11.90;;;1.90;99.90;;;;;;5024255;28;20046;-85
2021/11/25 04:08:31;;;;;;;20.55;10.55;;;1.90;99.90;;;;;;5008269;28;20088;-85
2021/11/25 04:10:57;;;;;;;26.38;11.93;;;1.90;99.90;;;;;;5022389;28;20029;-85
2021/11/25 04:13:23;;;;;;;21.23;11.15;;;1.90;99.90;;;;;;5041014;28;20037;-85
2021/11/25 04:15:49;;;;;;;20.15;10.32;;;1.90;99.90;;;;;;5041641;28;20065;-84
2021/11/25 04:18:14;;;;;;;22.25;10.55;;;1.90;99.90;;;;;;5041409;28;20030;-85
2021/11/25 04:20:40;;;;;;;25.70;12.63;;;2.00;99.90;;;;;;5040834;28;20034;-85
2021/11/25 04:23:06;;;;;;;23.35;11.90;;;1.90;99.90;;;;;;5024599;28;20053;-86
2021/11/25 04:25:34;;;;;;;24.23;11.27;;;1.90;99.90;;;;;;5041121;28;20101;-85
2021/11/25 04:28:00;;;;;;;26.33;12.10;;;1.90;99.90;;;;;;5041169;28;20030;-85
2021/11/25 04:30:37;;;;;;;24.48;11.63;;;2.00;99.90;;;;;;5040747;28;20109;-85
2021/11/25 04:35:47;;;;;;;22.30;11.65;;;1.90;99.90;;;;;;5040970;28;20053;-85
2021/11/25 04:38:17;;;;;;;27.02;14.38;;;1.90;99.90;;;;;;5024664;28;20030;-85
2021/11/25 04:40:50;;;;;;;25.55;12.32;;;1.80;99.90;;;;;;5024485;28;20034;-85
2021/11/25 04:43:18;;;;;;;23.70;11.15;;;1.70;99.90;;;;;;5044628;28;20192;-85
2021/11/25 04:45:45;;;;;;;25.92;12.73;;;1.60;99.90;;;;;;5044664;28;20046;-85
2021/11/25 04:48:12;;;;;;;27.95;12.73;;;1.60;99.90;;;;;;5044743;28;20096;-85
2021/11/25 04:50:39;;;;;;;23.20;12.88;;;1.60;99.90;;;;;;5047676;28;20034;-85
2021/11/25 04:53:05;;;;;;;24.08;11.68;;;1.60;99.90;;;;;;5049159;28;20034;-84
2021/11/25 04:55:31;;;;;;;25.98;11.88;;;1.60;99.90;;;;;;5031341;28;20045;-84
2021/11/25 04:57:57;;;;;;;24.23;11.95;;;1.60;99.90;;;;;;5031412;28;20029;-85
2021/11/25 05:00:23;;;;;;;22.27;11.57;;;1.60;99.90;;;;;;5031080;28;20029;-84
2021/11/25 05:02:49;;;;;;;23.92;11.32;;;1.60;99.90;;;;;;5047560;28;20033;-85
2021/11/25 05:05:15;;;;;;;25.17;12.82;;;1.60;99.90;;;;;;5030980;28;20025;-84
2021/11/25 05:07:41;;;;;;;27.55;12.93;;;1.60;99.90;;;;;;5031367;28;20041;-85
2021/11/25 05:10:08;;;;;;;22.75;11.65;;;1.60;99.90;;;;;;5030575;28;20033;-84
2021/11/25 05:12:36;;;;;;;24.95;12.15;;;1.60;99.90;;;;;;5047913;28;20535;-85
2021/11/25 05:15:04;;;;;;;23.45;11.07;;;1.70;99.90;;;;;;5030971;28;20099;-86
2021/11/25 05:17:29;;;;;;;22.20;11.32;;;1.70;99.90;;;;;;5030746;28;20033;-86
2021/11/25 05:19:57;;;;;;;20.77;12.18;;;1.70;99.90;;;;;;5012953;28;20025;-86
2021/11/25 05:22:23;;;;;;;22.40;12.63;;;1.70;99.90;;;;;;5027405;28;20090;-87
2021/11/25 05:24:49;;;;;;;24.25;12.38;;;1.80;99.90;;;;;;5027507;28;20057;-86
2021/11/25 05:27:14;;;;;;;24.25;11.93;;;1.80;99.90;;;;;;5027285;28;20056;-86
2021/11/25 05:29:40;;;;;;;23.50;12.02;;;1.70;99.90;;;;;;5026991;28;20038;-85
2021/11/25 05:32:06;;;;;;;25.77;13.43;;;1.70;99.90;;;;;;5027227;28;20045;-86
2021/11/25 05:34:32;;;;;;;24.98;13.43;;;1.90;99.90;;;;;;5026967;28;20029;-85
2021/11/25 05:36:58;;;;;;;26.10;13.70;;;2.00;99.90;;;;;;5039945;28;20108;-86
2021/11/25 05:39:23;;;;;;;25.15;13.07;;;1.90;99.90;;;;;;5024010;28;20144;-86
2021/11/25 05:41:49;;;;;;;24.45;13.23;;;2.10;99.90;;;;;;5046880;28;20111;-85
2021/11/25 05:44:15;;;;;;;23.95;13.30;;;2.00;99.90;;;;;;5030604;28;20041;-85
2021/11/25 05:46:41;;;;;;;27.15;14.32;;;2.00;99.90;;;;;;5030401;28;20068;-86
2021/11/25 05:49:07;;;;;;;27.70;15.45;;;2.10;99.90;;;;;;5046721;28;20025;-86
2021/11/25 05:51:34;;;;;;;29.75;16.25;;;2.20;99.90;;;;;;5030411;28;20064;-86
2021/11/25 05:54:00;;;;;;;30.88;16.00;;;2.20;99.90;;;;;;5045758;28;20029;-85
2021/11/25 05:56:25;;;;;;;28.92;16.17;;;2.20;99.90;;;;;;5048289;28;20033;-86
2021/11/25 05:58:51;;;;;;;31.83;15.68;;;2.30;99.90;;;;;;5046322;28;20029;-86
2021/11/25 06:01:16;;;;;;;25.15;14.18;;;2.30;99.90;;;;;;5029920;28;20080;-86
2021/11/25 06:03:42;;;;;;;31.25;15.80;;;2.30;99.90;;;;;;5030132;28;20048;-86
2021/11/25 06:06:08;;;;;;;29.75;15.68;;;2.40;99.90;;;;;;5030073;28;20476;-88
2021/11/25 06:08:33;;;;;;;25.95;14.98;;;2.40;99.90;;;;;;5030108;28;20120;-86
2021/11/25 06:11:02;;;;;;;29.13;15.23;;;2.40;99.90;;;;;;5029673;28;20125;-87
2021/11/25 06:13:29;;;;;;;29.65;15.60;;;2.40;99.90;;;;;;5030053;28;20055;-86
2021/11/25 06:15:54;;;;;;;30.88;16.05;;;2.40;99.90;;;;;;5029859;28;20108;-88
2021/11/25 06:18:20;;;;;;;26.70;14.48;;;2.40;99.90;;;;;;5029927;28;20041;-86
2021/11/25 06:20:46;;;;;;;30.13;16.40;;;2.40;99.90;;;;;;5029777;28;20029;-87
2021/11/25 06:23:11;;;;;;;27.85;15.02;;;2.40;99.90;;;;;;5029947;28;20060;-87
2021/11/25 06:25:38;;;;;;;26.55;15.43;;;2.40;99.90;;;;;;5029824;28;20060;-87
2021/11/25 06:28:04;;;;;;;28.58;16.90;;;2.50;99.90;;;;;;5029779;28;20038;-88
2021/11/25 06:30:30;;;;;;;27.02;16.15;;;2.50;99.90;;;;;;5046999;28;20061;-86
2021/11/25 06:32:55;;;;;;;30.42;16.63;;;2.50;99.90;;;;;;5028878;28;20048;-87
2021/11/25 06:35:21;;;;;;;28.92;16.17;;;2.50;99.90;;;;;;5028812;28;20060;-88
2021/11/25 06:37:50;;;;;;;31.70;17.27;;;2.50;99.90;;;;;;5029142;28;20030;-87
2021/11/25 06:40:19;;;;;;;32.03;18.02;;;2.50;99.90;;;;;;5029339;28;20053;-87
2021/11/25 06:42:45;;;;;;;30.50;16.52;;;2.50;99.90;;;;;;5029297;28;20056;-87
2021/11/25 06:45:11;;;;;;;31.50;16.65;;;2.50;99.90;;;;;;5029283;28;20033;-88
2021/11/25 06:47:37;;;;;;;29.33;15.23;;;2.60;99.90;;;;;;5029360;28;20080;-87
2021/11/25 06:50:09;;;;;;;32.20;17.13;;;2.50;99.90;;;;;;5029438;28;20030;-87
2021/11/25 06:52:35;;;;;;;32.00;19.33;;;2.60;99.90;;;;;;5029411;28;20044;-87
2021/11/25 06:55:01;;;;;;;37.95;22.92;;;2.60;99.90;;;;;;5029428;28;20033;-87
2021/11/25 06:57:26;;;;;;;34.50;20.35;;;2.60;99.90;;;;;;5029236;28;20029;-87
2021/11/25 06:59:52;;;;;;;37.55;21.50;;;2.60;99.90;;;;;;5029233;28;20034;-87
2021/11/25 07:02:18;;;;;;;38.25;23.58;;;2.60;99.90;;;;;;5029155;28;20036;-86
2021/11/25 07:04:43;;;;;;;41.42;24.20;;;2.60;99.90;;;;;;5029021;28;20478;-86
2021/11/25 07:07:09;;;;;;;40.95;24.40;;;2.60;99.90;;;;;;5029208;28;20079;-87
2021/11/25 07:09:35;;;;;;;39.22;23.15;;;2.70;99.90;;;;;;5025796;28;20485;-87
2021/11/25 07:12:01;;;;;;;41.90;25.05;;;2.70;99.90;;;;;;5025822;28;20045;-87
2021/11/25 07:14:27;;;;;;;40.30;23.50;;;2.70;99.90;;;;;;5042627;28;20034;-88
2021/11/25 07:16:52;;;;;;;43.70;26.30;;;2.80;99.90;;;;;;5027088;28;20033;-87
2021/11/25 07:19:19;;;;;;;41.95;23.35;;;2.70;99.90;;;;;;5025744;28;20039;-87
2021/11/25 07:21:44;;;;;;;41.20;24.38;;;2.70;99.90;;;;;;5042438;28;20038;-86
2021/11/25 07:24:10;;;;;;;38.17;22.15;;;2.80;99.90;;;;;;5025805;28;20033;-87
2021/11/25 07:26:35;;;;;;;37.50;21.63;;;2.80;99.90;;;;;;5025402;28;20073;-88
2021/11/25 07:29:01;;;;;;;35.38;20.85;;;2.80;99.90;;;;;;5009203;28;20030;-87
2021/11/25 07:31:30;;;;;;;41.80;23.35;;;2.80;99.90;;;;;;4995214;28;20101;-86
2021/11/25 07:33:56;;;;;;;37.75;22.50;;;2.80;99.90;;;;;;5022190;28;20092;-86
2021/11/25 07:36:23;;;;;;;37.90;22.60;;;2.80;99.90;;;;;;5030145;28;20036;-87
2021/11/25 07:38:49;;;;;;;41.10;25.33;;;2.90;99.90;;;;;;5023074;28;20026;-86
2021/11/25 07:41:15;;;;;;;38.58;22.60;;;2.90;99.90;;;;;;5034230;28;20045;-86
2021/11/25 07:43:41;;;;;;;37.05;22.55;;;2.90;99.90;;;;;;5030376;28;20080;-85
2021/11/25 07:46:06;;;;;;;35.67;22.45;;;2.90;99.90;;;;;;5027859;28;20037;-86
2021/11/25 07:48:32;;;;;;;34.72;19.77;;;3.00;99.90;;;;;;5029368;28;20070;-85
2021/11/25 07:50:58;;;;;;;39.88;24.25;;;3.00;99.90;;;;;;5046363;28;20033;-85
2021/11/25 07:53:23;;;;;;;36.58;21.23;;;3.00;99.90;;;;;;5033931;28;20037;-85
2021/11/25 07:55:49;;;;;;;44.78;26.02;;;3.00;99.90;;;;;;5030600;28;20108;-85
2021/11/25 07:58:14;;;;;;;45.80;25.58;;;3.00;99.90;;;;;;5026799;28;20116;-85
2021/11/25 08:00:40;;;;;;;43.58;24.38;;;3.00;99.90;;;;;;5041609;28;20041;-84
2021/11/25 08:03:06;;;;;;;44.00;25.60;;;3.10;99.90;;;;;;5029778;28;20029;-85
2021/11/25 08:05:31;;;;;;;44.10;26.60;;;3.10;99.90;;;;;;5029349;28;20247;-85
2021/11/25 08:07:58;;;;;;;44.45;25.73;;;3.10;99.90;;;;;;5039893;28;20070;-85
2021/11/25 08:10:26;;;;;;;46.88;27.33;;;3.10;99.90;;;;;;5028810;28;20032;-85
2021/11/25 08:12:54;;;;;;;44.78;25.90;;;3.20;99.90;;;;;;5029999;28;20032;-84
2021/11/25 08:15:19;;;;;;;47.10;27.90;;;3.20;99.90;;;;;;5026860;28;20030;-85
2021/11/25 08:17:46;;;;;;;46.42;27.98;;;3.20;99.90;;;;;;5030647;28;20033;-84
2021/11/25 08:20:12;;;;;;;47.35;25.77;;;3.20;99.90;;;;;;5032990;28;20032;-85
2021/11/25 08:22:39;;;;;;;44.22;26.40;;;3.30;99.90;;;;;;5033672;28;20040;-85
2021/11/25 08:25:06;;;;;;;45.13;26.65;;;3.30;99.90;;;;;;5033515;28;20251;-85
2021/11/25 08:27:32;;;;;;;44.10;26.65;;;3.40;99.90;;;;;;5033469;28;20049;-85
2021/11/25 08:29:58;;;;;;;44.97;27.40;;;3.40;99.90;;;;;;5050182;28;20021;-84
2021/11/25 08:32:24;;;;;;;47.13;27.98;;;3.40;99.90;;;;;;5034412;28;20037;-85
2021/11/25 08:34:50;;;;;;;48.63;27.08;;;3.40;99.90;;;;;;5051124;28;20025;-86
2021/11/25 08:37:16;;;;;;;50.88;28.48;;;3.50;99.90;;;;;;5034597;28;20082;-85
2021/11/25 08:39:41;;;;;;;43.38;25.85;;;3.50;99.90;;;;;;5050777;28;20056;-85
2021/11/25 08:42:07;;;;;;;50.28;29.63;;;3.50;99.90;;;;;;5050900;28;20045;-86
2021/11/25 08:44:33;;;;;;;48.33;28.52;;;3.50;99.90;;;;;;5011417;28;20099;-87
2021/11/25 08:47:00;;;;;;;46.10;25.73;;;3.50;99.90;;;;;;5026447;28;20091;-86
2021/11/25 08:49:26;;;;;;;47.83;27.08;;;3.50;99.90;;;;;;5032301;28;20041;-87
2021/11/25 08:51:52;;;;;;;47.33;26.88;;;3.50;99.90;;;;;;5031054;28;20057;-86
2021/11/25 08:54:18;;;;;;;48.00;26.50;;;3.50;99.90;;;;;;5030769;28;20025;-86
2021/11/25 08:56:44;;;;;;;40.72;24.15;;;3.60;99.90;;;;;;5030888;28;20033;-86
2021/11/25 08:59:10;;;;;;;43.15;25.10;;;3.60;99.90;;;;;;5030953;28;20037;-86
2021/11/25 09:01:36;;;;;;;43.92;27.02;;;3.70;99.90;;;;;;5031042;28;20037;-86
2021/11/25 09:04:01;;;;;;;48.63;27.50;;;3.70;99.90;;;;;;5047060;28;20116;-87
2021/11/25 09:06:27;;;;;;;47.72;27.65;;;3.70;99.90;;;;;;5030804;28;20048;-87
2021/11/25 09:08:53;;;;;;;45.17;26.65;;;3.70;99.90;;;;;;5031226;28;20026;-86
2021/11/25 09:11:19;;;;;;;53.70;29.88;;;3.70;99.90;;;;;;5033679;28;20052;-86
2021/11/25 09:13:45;;;;;;;44.13;26.58;;;3.70;99.90;;;;;;5033809;28;20055;-87
2021/11/25 09:16:11;;;;;;;42.15;26.50;;;3.80;99.90;;;;;;5034022;28;20056;-87
2021/11/25 09:18:37;;;;;;;42.70;25.42;;;3.70;99.90;;;;;;5033554;28;20084;-86
2021/11/25 09:21:03;;;;;;;44.65;26.55;;;3.80;99.90;;;;;;5033657;28;20032;-86
2021/11/25 09:23:29;;;;;;;44.45;26.83;;;3.80;99.90;;;;;;5033476;28;20119;-87
2021/11/25 09:25:55;;;;;;;45.40;28.05;;;3.80;99.90;;;;;;5050422;28;20107;-86
2021/11/25 09:28:24;;;;;;;39.03;24.48;;;3.80;99.90;;;;;;5033581;28;20059;-87
2021/11/25 09:30:52;;;;;;;39.45;24.67;;;3.80;99.90;;;;;;5050209;28;20037;-87
2021/11/25 09:33:19;;;;;;;35.95;23.77;;;3.80;99.90;;;;;;5050217;28;20029;-87
2021/11/25 09:35:46;;;;;;;38.92;23.63;;;3.80;99.90;;;;;;5050069;28;20036;-87
2021/11/25 09:38:12;;;;;;;41.42;24.95;;;3.90;99.90;;;;;;5033514;28;20025;-87
2021/11/25 09:40:41;;;;;;;41.08;23.35;;;3.90;99.90;;;;;;5049988;28;20090;-87
2021/11/25 09:43:10;;;;;;;37.77;22.47;;;3.90;99.90;;;;;;5050138;28;20114;-86
2021/11/25 09:45:38;;;;;;;36.85;22.50;;;3.90;99.90;;;;;;5034244;28;20033;-86
2021/11/25 09:48:09;;;;;;;36.20;23.35;;;3.90;99.90;;;;;;5033416;28;20067;-86
2021/11/25 09:50:40;;;;;;;42.40;23.83;;;4.00;99.90;;;;;;5033054;28;20040;-87
2021/11/25 09:53:08;;;;;;;40.78;26.67;;;4.00;99.90;;;;;;5049828;28;20036;-85
2021/11/25 09:55:37;;;;;;;44.85;26.75;;;4.00;99.90;;;;;;5033120;28;20033;-86
2021/11/25 09:58:04;;;;;;;41.10;25.20;;;4.20;99.90;;;;;;5049578;28;20033;-86
2021/11/25 10:00:32;;;;;;;43.00;26.75;;;4.30;99.90;;;;;;5032753;28;20045;-87
2021/11/25 10:02:59;;;;;;;44.88;25.95;;;4.20;99.90;;;;;;5032748;28;20058;-86
2021/11/25 10:05:25;;;;;;;41.92;26.80;;;4.30;99.90;;;;;;5032732;28;20029;-87
2021/11/25 10:07:51;;;;;;;38.10;25.30;;;4.30;99.90;;;;;;5033038;28;20039;-86
2021/11/25 10:10:19;;;;;;;42.50;25.88;;;4.30;99.90;;;;;;5029068;28;20033;-86
2021/11/25 10:12:47;;;;;;;31.85;19.42;;;4.20;99.90;;;;;;5046102;28;20093;-86
2021/11/25 10:15:38;;;;;;;40.78;24.80;;;4.20;99.90;;;;;;5045927;28;20037;-87
2021/11/25 10:18:13;;;;;;;34.88;21.98;;;4.30;99.90;;;;;;5045855;28;20037;-87
2021/11/25 10:20:48;;;;;;;42.53;25.90;;;4.30;99.90;;;;;;5045767;28;20032;-87
2021/11/25 10:23:29;;;;;;;43.03;27.52;;;4.30;99.90;;;;;;5045903;28;20044;-86
2021/11/25 10:26:07;;;;;;;40.25;25.42;;;4.30;99.90;;;;;;5045499;28;20038;-86
2021/11/25 10:28:41;;;;;;;40.40;24.35;;;4.20;99.90;;;;;;5045668;28;20041;-86
2021/11/25 10:31:13;;;;;;;45.22;28.50;;;4.20;99.90;;;;;;5045469;28;20034;-86
2021/11/25 10:33:50;;;;;;;42.85;25.98;;;4.30;99.90;;;;;;5012867;28;20033;-86
2021/11/25 10:39:46;;;;;;;43.08;25.33;;;4.40;99.90;;;;;;5024044;28;20033;-87
2021/11/25 10:42:13;;;;;;;43.70;24.73;;;4.50;99.90;;;;;;5045340;28;20084;-87
2021/11/25 10:44:40;;;;;;;41.63;24.17;;;4.50;99.90;;;;;;5029088;28;20061;-86
2021/11/25 10:47:28;;;;;;;47.97;29.00;;;4.50;99.90;;;;;;5045330;28;20099;-87
2021/11/25 10:49:56;;;;;;;49.42;28.15;;;4.40;99.90;;;;;;5012831;28;20124;-87
2021/11/25 10:52:30;;;;;;;46.58;27.17;;;4.50;99.90;;;;;;5048676;28;20121;-87
2021/11/25 10:54:58;;;;;;;54.90;28.60;;;4.50;99.90;;;;;;5065275;28;20063;-87
2021/11/25 10:57:39;;;;;;;43.92;23.23;;;4.50;99.90;;;;;;5048913;28;20039;-87
2021/11/25 11:00:08;;;;;;;41.95;24.00;;;4.70;99.90;;;;;;5048636;28;20031;-88
2021/11/25 11:02:34;;;;;;;42.27;26.00;;;4.80;99.90;;;;;;5048521;28;20078;-87
2021/11/25 11:05:03;;;;;;;44.28;26.15;;;4.80;99.90;;;;;;5048400;28;20033;-87
2021/11/25 11:07:35;;;;;;;42.33;25.25;;;4.80;99.90;;;;;;5065078;28;20064;-88
2021/11/25 11:10:26;;;;;;;40.05;23.67;;;4.80;99.90;;;;;;5066056;28;20033;-87
2021/11/25 11:13:13;;;;;;;43.67;25.67;;;4.90;99.90;;;;;;5047320;28;20058;-88
2021/11/25 11:15:55;;;;;;;39.20;24.02;;;4.90;99.90;;;;;;5013323;28;20052;-87
2021/11/25 11:18:46;;;;;;;45.10;25.08;;;5.00;99.90;;;;;;5029613;28;20097;-87
2021/11/25 11:21:38;;;;;;;46.00;26.85;;;5.00;99.90;;;;;;5023143;28;20034;-87
2021/11/25 11:24:07;;;;;;;41.42;24.40;;;5.10;99.90;;;;;;5024184;28;20473;-87
2021/11/25 11:26:37;;;;;;;47.43;27.30;;;5.30;99.90;;;;;;5030151;28;20570;-88
2021/11/25 11:29:03;;;;;;;52.33;29.85;;;5.10;99.90;;;;;;5042185;28;20311;-88
2021/11/25 11:31:32;;;;;;;56.67;33.70;;;5.20;99.90;;;;;;5031660;28;20040;-88
2021/11/25 11:33:59;;;;;;;53.60;32.47;;;5.10;99.90;;;;;;5027046;28;20040;-88
2021/11/25 11:36:25;;;;;;;54.22;32.03;;;5.20;99.90;;;;;;5026883;28;20088;-89
2021/11/25 11:38:51;;;;;;;47.17;26.90;;;5.20;99.90;;;;;;5046205;28;20037;-87
2021/11/25 11:41:17;;;;;;;50.72;27.60;;;5.20;99.90;;;;;;5026943;28;20025;-88
2021/11/25 11:43:43;;;;;;;61.60;33.97;;;5.20;99.90;;;;;;5031165;28;20158;-88
2021/11/25 11:46:12;;;;;;;52.72;31.00;;;5.10;99.90;;;;;;5033980;28;20033;-88
2021/11/25 11:48:38;;;;;;;49.33;28.60;;;5.20;99.90;;;;;;5034835;28;20064;-88
2021/11/25 11:51:16;;;;;;;40.75;24.58;;;5.40;99.90;;;;;;5045893;28;20032;-90
2021/11/25 11:53:44;;;;;;;52.08;29.90;;;5.30;99.90;;;;;;5046831;28;20033;-87
2021/11/25 11:56:12;;;;;;;44.53;26.15;;;5.40;99.90;;;;;;5031701;28;20045;-88
2021/11/25 11:58:48;;;;;;;66.35;36.88;;;5.50;99.90;;;;;;5030485;28;20390;-89
2021/11/25 12:01:14;;;;;;;59.58;34.53;;;5.30;99.90;;;;;;5027558;28;20060;-89
2021/11/25 12:03:46;;;;;;;75.43;40.92;;;5.20;99.90;;;;;;5022731;28;20033;-89
2021/11/25 12:06:40;;;;;;;63.97;35.95;;;5.20;99.90;;;;;;5024774;28;20083;-88
2021/11/25 12:09:21;;;;;;;67.03;38.55;;;5.20;99.90;;;;;;5045628;28;20128;-89
2021/11/25 12:11:47;;;;;;;59.88;32.88;;;5.20;99.90;;;;;;5046796;28;20029;-89
2021/11/25 12:14:29;;;;;;;59.30;33.72;;;5.40;99.90;;;;;;5030500;28;20132;-87
2021/11/25 12:16:54;;;;;;;60.53;35.60;;;5.30;99.90;;;;;;5034858;28;20041;-88
2021/11/25 12:19:36;;;;;;;67.00;37.15;;;5.50;99.90;;;;;;5027211;28;20055;-89
2021/11/25 12:22:14;;;;;;;55.13;33.45;;;5.60;99.90;;;;;;5038513;28;20033;-88
2021/11/25 12:24:46;;;;;;;66.65;38.03;;;5.90;99.90;;;;;;5030261;28;20402;-88
2021/11/25 12:27:39;;;;;;;63.20;35.03;;;5.80;99.90;;;;;;5029852;28;20075;-89
2021/11/25 12:30:11;;;;;;;54.13;31.05;;;5.90;99.90;;;;;;5046045;28;20029;-89
2021/11/25 12:32:44;;;;;;;53.15;31.80;;;5.90;99.90;;;;;;5028266;28;20040;-87
2021/11/25 12:35:19;;;;;;;56.35;30.25;;;5.90;99.90;;;;;;5029838;28;20469;-89
2021/11/25 12:37:45;;;;;;;57.38;34.22;;;5.80;99.90;;;;;;5025665;28;20033;-87
2021/11/25 12:40:17;;;;;;;55.70;32.58;;;5.80;99.90;;;;;;5010222;28;20029;-88
2021/11/25 12:42:42;;;;;;;55.17;32.95;;;5.80;99.90;;;;;;5010993;28;20054;-88
2021/11/25 12:45:32;;;;;;;58.75;32.15;;;5.80;99.90;;;;;;5010709;28;20470;-88
2021/11/25 12:48:11;;;;;;;52.10;26.95;;;5.90;99.90;;;;;;5043181;28;20052;-88